Time;durP1;ratioP1;P1;durP2;ratioP2;P2;SDS_P1;SDS_P2;PMS_P1;PMS_P2;Temp;Humidity;BMP_temperature;BMP_pressure;BME280_temperature;BME280_humidity;BME280_pressure;Samples;Min_cycle;Max_cycle;Signal;HPM_P1;HPM_P2
2023/06/28 00:01:06;;;;;;;0.35;0.20;;;19.40;72.20;;;;;;5134331;27;19911;-84
2023/06/28 00:03:32;;;;;;;1.33;0.57;;;19.30;70.70;;;;;;5116154;28;20129;-83
2023/06/28 00:05:58;;;;;;;0.10;0.10;;;19.30;71.60;;;;;;5133129;28;20031;-86
2023/06/28 00:08:25;;;;;;;1.00;0.82;;;19.30;71.40;;;;;;5116140;28;20051;-82
2023/06/28 00:10:51;;;;;;;0.63;0.40;;;19.30;71.50;;;;;;5133062;28;20413;-85
2023/06/28 00:13:17;;;;;;;;;;;19.30;71.40;;;;;;5134005;28;20039;-83
2023/06/28 00:15:44;;;;;;;0.32;0.32;;;19.30;71.20;;;;;;5132936;28;20424;-84
2023/06/28 00:18:11;;;;;;;0.55;0.47;;;19.30;71.30;;;;;;5116339;28;20471;-85
2023/06/28 00:20:37;;;;;;;0.68;0.50;;;19.20;71.70;;;;;;5133797;27;20574;-82
2023/06/28 00:23:03;;;;;;;;;;;19.20;71.90;;;;;;5116704;28;20068;-87
2023/06/28 00:25:29;;;;;;;0.22;0.22;;;19.20;71.70;;;;;;5134134;27;20348;-85
2023/06/28 00:27:56;;;;;;;0.28;0.28;;;19.20;71.70;;;;;;5116380;28;20034;-88
2023/06/28 00:30:22;;;;;;;;;;;19.30;71.80;;;;;;5116296;28;20487;-87
2023/06/28 00:32:48;;;;;;;0.38;0.20;;;19.20;71.60;;;;;;5116255;28;19911;-86
2023/06/28 00:35:14;;;;;;;;;;;19.20;71.50;;;;;;5133827;28;20041;-85
2023/06/28 00:37:41;;;;;;;0.52;0.50;;;19.20;72.50;;;;;;5133607;28;19925;-87
2023/06/28 00:40:09;;;;;;;0.20;0.20;;;19.10;71.80;;;;;;5133115;28;20035;-88
2023/06/28 00:42:35;;;;;;;0.50;0.45;;;19.10;72.10;;;;;;5133335;28;20024;-88
2023/06/28 00:45:01;;;;;;;;;;;19.10;72.50;;;;;;5133988;27;20130;-85
2023/06/28 00:47:28;;;;;;;0.60;0.50;;;19.00;72.40;;;;;;5106830;28;19912;-87
2023/06/28 00:49:55;;;;;;;2.25;0.85;;;19.00;72.40;;;;;;5099364;28;20042;-87
2023/06/28 00:52:22;;;;;;;0.73;0.40;;;19.00;72.40;;;;;;5099178;28;20510;-82
2023/06/28 00:54:48;;;;;;;0.43;0.30;;;18.90;71.70;;;;;;5099370;28;20043;-83
2023/06/28 00:57:14;;;;;;;0.45;0.45;;;19.00;72.30;;;;;;5098804;28;20024;-83
2023/06/28 00:59:41;;;;;;;0.40;0.40;;;19.00;72.10;;;;;;5116121;28;20040;-87
2023/06/28 01:02:07;;;;;;;1.70;0.43;;;19.00;71.90;;;;;;5115924;28;20032;-85
2023/06/28 01:04:57;;;;;;;;;;;18.90;72.70;;;;;;5116695;28;20040;-85
2023/06/28 01:07:43;;;;;;;0.30;0.30;;;18.90;72.40;;;;;;5099476;28;19994;-85
2023/06/28 01:10:10;;;;;;;1.20;0.20;;;18.90;72.10;;;;;;5115516;28;20043;-84
2023/06/28 01:12:37;;;;;;;1.35;0.57;;;18.90;71.70;;;;;;5117089;28;20435;-83
2023/06/28 01:15:04;;;;;;;1.35;0.82;;;18.90;72.40;;;;;;5098655;28;20058;-83
2023/06/28 01:17:30;;;;;;;0.80;0.40;;;18.80;72.80;;;;;;5115855;28;20099;-83
2023/06/28 01:19:56;;;;;;;0.38;0.32;;;18.80;72.20;;;;;;5115854;28;20036;-83
2023/06/28 01:22:25;;;;;;;;;;;18.80;72.90;;;;;;5115976;28;20059;-82
2023/06/28 01:24:52;;;;;;;1.13;0.60;;;18.80;72.50;;;;;;5117116;28;19919;-85
2023/06/28 01:27:18;;;;;;;0.28;0.28;;;18.80;72.60;;;;;;5115539;28;20024;-83
2023/06/28 01:29:47;;;;;;;0.40;0.35;;;18.80;72.90;;;;;;5098752;28;20396;-83
2023/06/28 01:32:13;;;;;;;0.70;0.32;;;18.70;72.60;;;;;;5115377;28;20368;-83
2023/06/28 01:34:39;;;;;;;;;;;18.70;73.20;;;;;;5099312;28;20050;-87
2023/06/28 01:37:05;;;;;;;0.85;0.47;;;18.80;73.00;;;;;;5098229;28;19919;-85
2023/06/28 01:39:32;;;;;;;0.65;0.50;;;18.70;73.30;;;;;;5098470;28;20057;-86
2023/06/28 01:42:00;;;;;;;0.52;0.45;;;18.60;73.20;;;;;;5115146;28;20038;-83
2023/06/28 01:44:26;;;;;;;1.05;0.63;;;18.70;73.50;;;;;;5115413;28;20243;-82
2023/06/28 01:46:53;;;;;;;3.38;0.75;;;18.60;73.00;;;;;;5097920;28;20495;-81
2023/06/28 01:49:19;;;;;;;1.08;0.50;;;18.60;72.80;;;;;;5098286;28;20059;-86
2023/06/28 01:51:45;;;;;;;0.95;0.40;;;18.70;73.60;;;;;;5114723;28;20035;-85
2023/06/28 01:54:11;;;;;;;0.70;0.40;;;18.70;72.80;;;;;;5098218;28;20046;-83
2023/06/28 01:56:37;;;;;;;;;;;18.70;73.70;;;;;;5098192;28;20563;-83
2023/06/28 01:59:03;;;;;;;1.35;0.63;;;18.70;73.20;;;;;;5098246;28;19916;-87
2023/06/28 02:01:29;;;;;;;1.02;0.73;;;18.70;73.00;;;;;;5097526;28;20055;-85
2023/06/28 02:03:55;;;;;;;0.88;0.50;;;18.70;73.00;;;;;;5115065;28;20084;-85
2023/06/28 02:06:21;;;;;;;0.52;0.40;;;18.80;72.80;;;;;;5115626;28;20032;-82
2023/06/28 02:08:47;;;;;;;0.20;0.20;;;18.80;72.70;;;;;;5114777;28;20035;-83
2023/06/28 02:11:13;;;;;;;;;;;18.80;72.50;;;;;;5116315;27;20130;-84
2023/06/28 02:13:40;;;;;;;0.77;0.50;;;18.80;72.40;;;;;;5114744;28;19915;-87
2023/06/28 02:16:06;;;;;;;0.70;0.60;;;18.80;72.30;;;;;;5097483;28;20099;-83
2023/06/28 02:18:34;;;;;;;0.95;0.50;;;18.80;72.60;;;;;;5114544;28;20044;-83
2023/06/28 02:21:00;;;;;;;0.40;0.40;;;18.70;73.00;;;;;;5097537;28;20077;-84
2023/06/28 02:23:26;;;;;;;0.85;0.60;;;18.70;73.30;;;;;;5114774;28;20043;-86
2023/06/28 02:25:52;;;;;;;0.55;0.38;;;18.70;73.70;;;;;;5114357;28;20032;-84
2023/06/28 02:28:19;;;;;;;0.98;0.43;;;18.60;73.80;;;;;;5114611;28;20091;-87
2023/06/28 02:30:45;;;;;;;1.17;0.57;;;18.60;73.70;;;;;;5097314;28;20169;-83
2023/06/28 02:33:13;;;;;;;2.63;0.77;;;18.60;73.60;;;;;;5114550;28;20035;-87
2023/06/28 02:35:39;;;;;;;0.70;0.30;;;18.60;73.50;;;;;;5114059;28;20042;-87
2023/06/28 02:38:05;;;;;;;0.85;0.68;;;18.60;73.40;;;;;;5114573;28;20035;-83
2023/06/28 02:40:31;;;;;;;1.30;0.75;;;18.60;73.40;;;;;;5115007;28;20105;-88
2023/06/28 02:42:57;;;;;;;0.85;0.50;;;18.60;73.40;;;;;;5097210;28;20054;-88
2023/06/28 02:45:23;;;;;;;0.93;0.80;;;18.60;73.50;;;;;;5096790;28;20503;-83
2023/06/28 02:47:49;;;;;;;1.90;0.73;;;18.60;73.60;;;;;;5115279;28;20034;-82
2023/06/28 02:50:15;;;;;;;0.82;0.52;;;18.60;73.90;;;;;;5096621;28;20040;-81
2023/06/28 02:52:41;;;;;;;1.92;0.75;;;18.50;74.20;;;;;;5113896;28;20028;-86
2023/06/28 02:55:07;;;;;;;;;;;18.40;74.40;;;;;;5097285;28;20074;-83
2023/06/28 02:57:33;;;;;;;0.20;0.20;;;18.40;74.30;;;;;;5114897;28;19930;-88
2023/06/28 03:00:00;;;;;;;;;;;18.40;74.20;;;;;;5097565;28;20046;-83
2023/06/28 03:02:26;;;;;;;0.60;0.47;;;18.40;73.90;;;;;;5096488;28;19960;-84
2023/06/28 03:04:52;;;;;;;0.10;0.10;;;18.40;73.50;;;;;;5115428;28;20047;-83
2023/06/28 03:07:18;;;;;;;;;;;18.50;73.50;;;;;;5113852;28;20541;-89
2023/06/28 03:09:45;;;;;;;0.90;0.50;;;18.50;73.50;;;;;;5114168;28;19920;-89
2023/06/28 03:12:11;;;;;;;1.00;0.55;;;18.50;72.70;;;;;;5096511;28;20032;-88
2023/06/28 03:14:38;;;;;;;0.47;0.20;;;18.50;73.20;;;;;;5113848;28;20048;-89
2023/06/28 03:17:05;;;;;;;0.75;0.60;;;18.50;73.30;;;;;;5113305;28;20369;-87
2023/06/28 03:19:32;;;;;;;0.35;0.35;;;18.50;72.90;;;;;;5096532;28;20496;-88
2023/06/28 03:21:58;;;;;;;0.25;0.25;;;18.50;73.60;;;;;;5113034;28;20031;-87
2023/06/28 03:24:24;;;;;;;0.47;0.30;;;18.50;73.50;;;;;;5114854;28;20047;-82
2023/06/28 03:26:50;;;;;;;0.45;0.30;;;18.60;73.40;;;;;;5113187;28;20032;-83
2023/06/28 03:29:16;;;;;;;0.30;0.30;;;18.60;73.30;;;;;;5096432;28;20093;-88
2023/06/28 03:31:42;;;;;;;1.13;1.02;;;18.60;73.50;;;;;;5113886;28;20503;-83
2023/06/28 03:34:08;;;;;;;2.63;1.23;;;18.50;74.00;;;;;;5096392;28;20043;-88
2023/06/28 03:36:34;;;;;;;1.25;0.65;;;18.50;74.10;;;;;;5095918;28;20031;-83
2023/06/28 03:39:00;;;;;;;1.05;0.63;;;18.50;73.80;;;;;;5096301;28;20066;-83
2023/06/28 03:41:28;;;;;;;0.20;0.20;;;18.60;73.60;;;;;;5112774;28;20077;-83
2023/06/28 03:43:55;;;;;;;0.52;0.35;;;18.50;73.30;;;;;;5096146;28;20105;-82
2023/06/28 03:46:21;;;;;;;1.10;0.85;;;18.50;72.80;;;;;;5095659;28;20030;-83
2023/06/28 03:48:47;;;;;;;1.08;0.68;;;18.50;73.30;;;;;;5112982;28;20495;-87
2023/06/28 03:51:13;;;;;;;0.40;0.40;;;18.60;73.30;;;;;;5113801;28;20073;-80
2023/06/28 03:53:39;;;;;;;0.88;0.60;;;18.50;73.40;;;;;;5114084;28;20046;-87
2023/06/28 03:56:05;;;;;;;1.42;0.70;;;18.60;73.60;;;;;;5113764;28;20036;-88
2023/06/28 03:58:31;;;;;;;1.35;0.85;;;18.60;73.90;;;;;;5095785;28;20032;-82
2023/06/28 04:00:57;;;;;;;2.00;0.95;;;18.50;74.10;;;;;;5112616;28;20036;-83
2023/06/28 04:03:23;;;;;;;0.43;0.38;;;18.50;74.10;;;;;;5112850;28;20046;-82
2023/06/28 04:05:50;;;;;;;0.98;0.38;;;18.50;74.10;;;;;;5095539;28;20032;-81
2023/06/28 04:08:16;;;;;;;;;;;18.50;74.70;;;;;;5113333;28;20059;-82
2023/06/28 04:10:44;;;;;;;0.25;0.25;;;18.50;73.60;;;;;;5112314;28;20372;-81
2023/06/28 04:13:10;;;;;;;1.48;1.02;;;18.50;73.60;;;;;;5113924;28;20395;-81
2023/06/28 04:15:36;;;;;;;0.77;0.68;;;18.50;73.00;;;;;;5112417;28;20031;-82
2023/06/28 04:18:02;;;;;;;1.27;0.75;;;18.50;73.60;;;;;;5112775;28;20055;-88
2023/06/28 04:20:28;;;;;;;;;;;18.60;73.50;;;;;;5096703;28;20408;-82
2023/06/28 04:22:54;;;;;;;0.45;0.35;;;18.60;73.50;;;;;;5099965;28;19911;-81
2023/06/28 04:25:20;;;;;;;;;;;18.60;73.20;;;;;;5117956;28;20038;-88
2023/06/28 04:27:46;;;;;;;0.60;0.43;;;18.60;73.40;;;;;;5116845;28;19912;-81
2023/06/28 04:30:12;;;;;;;2.55;1.65;;;18.50;73.70;;;;;;5116673;28;20043;-88
2023/06/28 04:32:38;;;;;;;;;;;18.50;73.70;;;;;;5100197;28;20027;-86
2023/06/28 04:35:05;;;;;;;0.30;0.30;;;18.60;73.70;;;;;;5116549;28;19926;-87
2023/06/28 04:37:32;;;;;;;0.65;0.65;;;18.60;73.10;;;;;;5099502;28;20126;-81
2023/06/28 04:40:00;;;;;;;0.32;0.20;;;18.50;73.80;;;;;;5116769;28;20035;-82
2023/06/28 04:42:26;;;;;;;0.40;0.40;;;18.60;73.70;;;;;;5098959;28;20494;-88
2023/06/28 04:44:59;;;;;;;2.10;1.08;;;18.60;73.70;;;;;;5099569;28;20082;-87
2023/06/28 04:47:27;;;;;;;1.08;0.93;;;18.60;73.50;;;;;;5099947;28;20024;-82
2023/06/28 04:52:39;;;;;;;1.30;0.82;;;18.60;73.20;;;;;;5116621;28;20646;-89
2023/06/28 04:55:06;;;;;;;1.48;0.73;;;18.70;73.30;;;;;;5117575;28;20040;-83
2023/06/28 04:57:32;;;;;;;0.15;0.15;;;18.60;73.20;;;;;;5115787;28;20488;-83
2023/06/28 04:59:58;;;;;;;1.48;0.70;;;18.70;73.40;;;;;;5117544;28;20035;-81
2023/06/28 05:02:25;;;;;;;1.38;0.77;;;18.70;73.40;;;;;;5098557;28;20027;-81
2023/06/28 05:04:51;;;;;;;1.65;0.47;;;18.70;73.30;;;;;;5099241;28;20051;-89
2023/06/28 05:07:17;;;;;;;0.65;0.43;;;18.70;73.20;;;;;;5116686;28;20024;-82
2023/06/28 05:09:43;;;;;;;0.60;0.35;;;18.80;73.20;;;;;;5098778;28;20055;-81
2023/06/28 05:12:09;;;;;;;;;;;18.80;73.20;;;;;;5116174;28;20077;-81
2023/06/28 05:14:35;;;;;;;1.90;0.63;;;18.80;73.20;;;;;;5098766;28;20368;-80
2023/06/28 05:17:01;;;;;;;0.20;0.20;;;18.80;73.10;;;;;;5098417;28;20024;-83
2023/06/28 05:19:28;;;;;;;0.55;0.43;;;18.80;73.30;;;;;;5098857;28;20089;-80
2023/06/28 05:21:54;;;;;;;0.90;0.80;;;18.80;73.40;;;;;;5098230;28;20031;-86
2023/06/28 05:24:21;;;;;;;0.55;0.43;;;18.80;73.50;;;;;;5098523;28;20093;-81
2023/06/28 05:26:47;;;;;;;2.83;0.40;;;18.80;73.90;;;;;;5116041;28;20028;-86
2023/06/28 05:29:13;;;;;;;;;;;18.80;73.90;;;;;;5099254;28;20041;-81
2023/06/28 05:31:42;;;;;;;0.90;0.45;;;18.80;73.80;;;;;;5114497;28;20002;-85
2023/06/28 05:34:08;;;;;;;1.83;0.40;;;18.70;73.10;;;;;;5098484;28;20031;-87
2023/06/28 05:36:34;;;;;;;0.80;0.55;;;18.70;74.00;;;;;;5096323;28;20051;-82
2023/06/28 05:39:00;;;;;;;1.15;0.63;;;18.80;74.20;;;;;;5103406;28;20040;-82
2023/06/28 05:41:26;;;;;;;7.40;0.85;;;18.70;74.00;;;;;;5114867;28;20032;-84
2023/06/28 05:43:52;;;;;;;0.52;0.40;;;18.80;74.20;;;;;;5086842;28;20040;-89
2023/06/28 05:46:18;;;;;;;;;;;18.70;74.20;;;;;;5095126;28;20055;-88
2023/06/28 05:48:46;;;;;;;0.85;0.65;;;18.70;74.20;;;;;;5095746;28;19920;-84
2023/06/28 05:51:14;;;;;;;1.08;0.50;;;18.70;74.50;;;;;;5094430;28;20118;-84
2023/06/28 05:53:41;;;;;;;0.55;0.40;;;18.70;74.70;;;;;;5078887;28;20072;-85
2023/06/28 05:56:07;;;;;;;0.30;0.30;;;18.70;75.00;;;;;;5107175;28;20422;-83
2023/06/28 05:58:34;;;;;;;1.63;0.90;;;18.60;74.90;;;;;;5097698;28;20088;-84
2023/06/28 06:01:01;;;;;;;0.63;0.55;;;18.60;75.20;;;;;;5114492;28;20031;-85
2023/06/28 06:03:27;;;;;;;0.50;0.43;;;18.70;75.30;;;;;;5114800;28;20036;-81
2023/06/28 06:05:53;;;;;;;;;;;18.60;75.50;;;;;;5091928;28;20032;-84
2023/06/28 06:08:19;;;;;;;2.05;0.95;;;18.60;75.20;;;;;;5080575;28;19923;-85
2023/06/28 06:10:45;;;;;;;0.55;0.50;;;18.70;75.60;;;;;;5070340;28;20048;-83
2023/06/28 06:13:12;;;;;;;0.55;0.55;;;18.70;75.60;;;;;;5083833;28;20039;-86
2023/06/28 06:15:38;;;;;;;1.25;0.70;;;18.70;74.90;;;;;;5069930;28;20081;-83
2023/06/28 06:18:04;;;;;;;;;;;18.70;74.90;;;;;;5087766;28;20032;-83
2023/06/28 06:20:31;;;;;;;0.57;0.40;;;18.70;75.30;;;;;;5069732;28;19942;-82
2023/06/28 06:22:57;;;;;;;0.85;0.50;;;18.80;75.10;;;;;;5086915;28;20052;-83
2023/06/28 06:25:23;;;;;;;;;;;18.80;75.20;;;;;;5069479;28;20116;-81
2023/06/28 06:27:49;;;;;;;1.23;0.88;;;18.70;75.40;;;;;;5070457;28;19916;-80
2023/06/28 06:30:15;;;;;;;2.22;0.82;;;18.70;75.50;;;;;;5088138;28;20429;-82
2023/06/28 06:32:42;;;;;;;0.40;0.20;;;18.60;75.50;;;;;;5087927;28;20036;-83
2023/06/28 06:35:08;;;;;;;0.68;0.52;;;18.60;75.50;;;;;;5087216;28;20438;-80
2023/06/28 06:37:34;;;;;;;1.40;1.08;;;18.60;74.90;;;;;;5070548;28;20039;-81
2023/06/28 06:40:00;;;;;;;;;;;18.60;75.40;;;;;;5088059;28;20486;-83
2023/06/28 06:42:27;;;;;;;0.55;0.47;;;18.50;74.60;;;;;;5069698;28;20224;-80
2023/06/28 06:44:53;;;;;;;0.88;0.68;;;18.50;75.00;;;;;;5086839;28;20064;-79
2023/06/28 06:47:19;;;;;;;0.65;0.43;;;18.50;74.90;;;;;;5069463;28;20043;-81
2023/06/28 06:49:45;;;;;;;0.28;0.28;;;18.50;74.70;;;;;;5070115;28;20146;-81
2023/06/28 06:52:11;;;;;;;0.22;0.20;;;18.50;74.60;;;;;;5069833;28;20040;-81
2023/06/28 06:54:37;;;;;;;;;;;18.60;74.30;;;;;;5087822;28;20431;-82
2023/06/28 06:57:05;;;;;;;0.40;0.40;;;18.60;74.10;;;;;;5086522;28;19922;-82
2023/06/28 06:59:32;;;;;;;0.50;0.50;;;18.60;73.60;;;;;;5070308;28;20032;-83
2023/06/28 07:01:58;;;;;;;0.50;0.40;;;18.70;73.60;;;;;;5103547;28;20038;-80
2023/06/28 07:04:24;;;;;;;0.55;0.30;;;18.70;73.20;;;;;;5107276;28;20044;-84
2023/06/28 07:06:50;;;;;;;;;;;18.80;72.80;;;;;;5090512;28;20165;-84
2023/06/28 07:09:18;;;;;;;0.57;0.57;;;18.80;72.00;;;;;;5107271;28;20303;-80
2023/06/28 07:11:46;;;;;;;0.47;0.35;;;18.90;71.90;;;;;;5107887;28;20030;-79
2023/06/28 07:14:12;;;;;;;0.15;0.15;;;18.90;71.30;;;;;;5107723;28;20055;-80
2023/06/28 07:16:38;;;;;;;0.40;0.30;;;19.00;71.70;;;;;;5107233;28;20032;-84
2023/06/28 07:19:06;;;;;;;0.20;0.20;;;19.00;71.40;;;;;;5107786;28;20130;-85
2023/06/28 07:21:32;;;;;;;0.47;0.40;;;19.10;70.70;;;;;;5090123;28;20127;-81
2023/06/28 07:23:58;;;;;;;;;;;19.10;71.10;;;;;;5107923;28;20040;-82
2023/06/28 07:26:24;;;;;;;0.65;0.50;;;19.10;71.20;;;;;;5089277;28;20319;-80
2023/06/28 07:28:50;;;;;;;0.22;0.20;;;19.10;70.60;;;;;;5090127;28;20384;-80
2023/06/28 07:31:16;;;;;;;0.40;0.30;;;19.10;70.40;;;;;;5106734;28;20042;-82
2023/06/28 07:33:42;;;;;;;;;;;19.10;70.30;;;;;;5090655;28;20035;-83
2023/06/28 07:36:08;;;;;;;1.00;0.55;;;19.20;70.30;;;;;;5089777;28;20061;-80
2023/06/28 07:38:35;;;;;;;0.20;0.20;;;19.10;69.90;;;;;;5107015;28;20028;-85
2023/06/28 07:41:02;;;;;;;0.30;0.30;;;19.10;69.60;;;;;;5106427;28;20035;-83
2023/06/28 07:43:28;;;;;;;0.98;0.88;;;19.10;69.40;;;;;;5107363;28;20061;-87
2023/06/28 07:45:58;;;;;;;0.90;0.30;;;19.20;69.10;;;;;;5107160;28;20027;-84
2023/06/28 07:48:26;;;;;;;0.50;0.35;;;19.20;68.70;;;;;;5107523;28;20035;-87
2023/06/28 07:50:53;;;;;;;0.17;0.17;;;19.20;68.20;;;;;;5106773;28;20043;-86
2023/06/28 07:53:19;;;;;;;0.40;0.30;;;19.20;68.10;;;;;;5108672;28;20027;-85
2023/06/28 07:55:45;;;;;;;0.55;0.30;;;19.20;67.70;;;;;;5088942;28;20028;-82
2023/06/28 07:58:11;;;;;;;;;;;19.20;67.10;;;;;;5090476;28;20096;-81
2023/06/28 08:00:37;;;;;;;0.45;0.30;;;19.30;67.90;;;;;;5107176;28;19924;-83
2023/06/28 08:03:03;;;;;;;0.10;0.10;;;19.30;67.50;;;;;;5108117;28;20039;-83
2023/06/28 08:05:29;;;;;;;;;;;19.30;67.30;;;;;;5106864;28;20031;-81
2023/06/28 08:07:56;;;;;;;0.10;0.10;;;19.40;67.40;;;;;;5107108;28;20010;-83
2023/06/28 08:10:23;;;;;;;2.60;0.38;;;19.50;67.80;;;;;;5088918;28;20488;-83
2023/06/28 08:12:50;;;;;;;0.35;0.30;;;19.50;66.50;;;;;;5106622;28;20116;-81
2023/06/28 08:15:18;;;;;;;0.32;0.30;;;19.60;66.20;;;;;;5106463;28;20046;-82
2023/06/28 08:17:44;;;;;;;0.20;0.20;;;19.70;66.30;;;;;;5105944;28;20028;-81
2023/06/28 08:20:11;;;;;;;0.20;0.20;;;19.80;65.50;;;;;;5089098;28;20081;-80
2023/06/28 08:22:36;;;;;;;;;;;19.90;66.20;;;;;;5107312;28;20491;-81
2023/06/28 08:25:03;;;;;;;0.63;0.40;;;20.00;66.00;;;;;;5106172;28;19945;-81
2023/06/28 08:27:29;;;;;;;0.35;0.28;;;20.20;65.30;;;;;;5089087;28;20373;-83
2023/06/28 08:29:56;;;;;;;;;;;20.40;64.80;;;;;;5090368;28;20035;-82
2023/06/28 08:32:22;;;;;;;0.70;0.35;;;20.70;64.70;;;;;;5105800;28;19927;-84
2023/06/28 08:34:48;;;;;;;;;;;21.00;63.50;;;;;;5090270;28;20040;-81
2023/06/28 08:37:14;;;;;;;0.10;0.10;;;21.30;63.60;;;;;;5106008;28;20414;-81
2023/06/28 08:39:40;;;;;;;;;;;21.50;62.40;;;;;;5106937;28;20529;-81
2023/06/28 08:42:06;;;;;;;1.17;0.68;;;21.80;62.60;;;;;;5106037;28;19916;-82
2023/06/28 08:44:33;;;;;;;0.60;0.50;;;22.00;60.70;;;;;;5089634;28;20252;-83
2023/06/28 08:47:00;;;;;;;0.20;0.20;;;22.30;59.60;;;;;;5106191;28;20028;-82
2023/06/28 08:49:45;;;;;;;0.17;0.17;;;22.50;58.90;;;;;;5089340;28;20051;-83
2023/06/28 08:52:15;;;;;;;0.52;0.50;;;22.90;58.80;;;;;;5089291;28;20054;-84
2023/06/28 08:54:43;;;;;;;0.30;0.30;;;23.20;57.10;;;;;;5106960;28;20479;-82
2023/06/28 08:57:10;;;;;;;0.50;0.50;;;23.50;56.50;;;;;;5106771;28;20111;-85
2023/06/28 08:59:37;;;;;;;0.43;0.43;;;23.80;55.60;;;;;;5106418;28;20111;-80
2023/06/28 09:02:04;;;;;;;0.30;0.30;;;24.00;55.40;;;;;;5087378;28;20028;-82
2023/06/28 09:04:30;;;;;;;0.20;0.20;;;24.10;55.50;;;;;;5085622;28;20097;-81
2023/06/28 09:06:57;;;;;;;0.40;0.40;;;24.20;54.90;;;;;;5086964;28;20541;-81
2023/06/28 09:09:25;;;;;;;0.20;0.20;;;24.10;55.40;;;;;;5073052;28;20507;-85
2023/06/28 09:11:51;;;;;;;0.50;0.40;;;24.10;55.40;;;;;;5072851;28;20119;-89
2023/06/28 09:14:17;;;;;;;0.52;0.50;;;24.20;55.80;;;;;;5090702;28;20044;-89
2023/06/28 09:16:43;;;;;;;;;;;24.30;55.50;;;;;;5091917;28;20475;-91
2023/06/28 09:19:09;;;;;;;0.75;0.50;;;24.40;55.90;;;;;;5073287;28;19995;-85
2023/06/28 09:21:35;;;;;;;;;;;24.50;55.20;;;;;;5090205;28;20035;-84
2023/06/28 09:24:01;;;;;;;0.35;0.30;;;24.60;55.10;;;;;;5090361;28;20015;-83
2023/06/28 09:26:46;;;;;;;1.25;0.32;;;24.50;54.70;;;;;;5089646;28;20028;-85
2023/06/28 09:29:13;;;;;;;1.17;0.43;;;24.60;54.60;;;;;;5089954;28;20090;-83
2023/06/28 09:31:57;;;;;;;0.40;0.40;;;24.40;52.30;;;;;;5072932;28;20085;-90
2023/06/28 09:34:24;;;;;;;0.88;0.50;;;24.30;53.80;;;;;;5072617;28;20040;-90
2023/06/28 09:36:58;;;;;;;0.45;0.45;;;24.70;52.80;;;;;;5090614;28;20036;-85
2023/06/28 09:39:25;;;;;;;0.73;0.35;;;25.00;51.90;;;;;;5089502;28;20066;-84
2023/06/28 09:41:53;;;;;;;0.75;0.60;;;25.40;51.20;;;;;;5072975;28;20114;-85
2023/06/28 09:44:38;;;;;;;0.55;0.55;;;25.90;49.80;;;;;;5072844;28;20044;-84
2023/06/28 09:47:05;;;;;;;0.38;0.38;;;25.80;50.10;;;;;;5089410;28;20040;-84
2023/06/28 09:49:31;;;;;;;1.08;0.55;;;25.60;50.30;;;;;;5078611;28;20149;-85
2023/06/28 09:52:18;;;;;;;0.28;0.28;;;25.40;50.50;;;;;;5080288;28;20382;-85
2023/06/28 09:54:47;;;;;;;0.60;0.50;;;25.40;51.00;;;;;;5090538;28;20561;-83
2023/06/28 09:57:13;;;;;;;1.02;0.68;;;25.40;51.00;;;;;;5092753;28;20130;-91
2023/06/28 09:59:40;;;;;;;0.50;0.50;;;25.60;50.10;;;;;;5092511;28;20044;-85
2023/06/28 10:02:25;;;;;;;1.25;0.80;;;25.80;49.40;;;;;;5092120;28;20063;-92
2023/06/28 10:04:54;;;;;;;1.08;0.30;;;26.80;47.80;;;;;;5109666;28;20054;-85
2023/06/28 10:07:23;;;;;;;0.63;0.55;;;28.40;44.60;;;;;;5103909;28;20028;-84
2023/06/28 10:09:49;;;;;;;0.30;0.30;;;29.80;40.70;;;;;;5077720;28;20492;-85
2023/06/28 10:12:20;;;;;;;0.20;0.20;;;29.40;40.70;;;;;;5109177;28;20508;-85
2023/06/28 10:15:09;;;;;;;0.50;0.50;;;29.00;41.60;;;;;;5090737;28;20036;-90
2023/06/28 10:17:36;;;;;;;0.30;0.30;;;28.30;42.90;;;;;;5088976;28;20454;-92
2023/06/28 10:20:04;;;;;;;1.20;0.45;;;27.80;43.30;;;;;;5089523;28;20040;-85
2023/06/28 10:22:30;;;;;;;0.55;0.55;;;27.50;43.90;;;;;;5072398;28;20032;-91
2023/06/28 10:24:58;;;;;;;0.40;0.40;;;27.50;44.40;;;;;;5089201;28;20571;-85
2023/06/28 10:27:25;;;;;;;0.90;0.65;;;29.10;40.10;;;;;;5093570;28;20028;-85
2023/06/28 10:29:53;;;;;;;0.40;0.40;;;30.40;38.70;;;;;;5092854;28;20076;-84
2023/06/28 10:32:20;;;;;;;1.90;0.57;;;31.70;35.60;;;;;;5091738;28;20028;-89
2023/06/28 10:35:06;;;;;;;0.50;0.50;;;33.00;33.40;;;;;;5110516;28;20253;-83
2023/06/28 10:37:32;;;;;;;0.30;0.30;;;33.90;30.60;;;;;;5109531;28;20035;-89
2023/06/28 10:39:59;;;;;;;1.17;0.50;;;33.40;29.60;;;;;;5109014;28;20040;-85
2023/06/28 10:42:25;;;;;;;0.38;0.38;;;32.50;31.10;;;;;;5091535;28;20030;-88
2023/06/28 10:45:12;;;;;;;0.60;0.40;;;31.70;30.40;;;;;;5109910;28;20040;-88
2023/06/28 10:47:52;;;;;;;0.88;0.77;;;30.70;33.20;;;;;;5110111;28;20032;-87
2023/06/28 10:50:21;;;;;;;0.93;0.60;;;30.20;32.30;;;;;;5091469;28;20097;-84
2023/06/28 10:52:52;;;;;;;1.05;0.80;;;30.10;33.40;;;;;;5091739;28;20031;-85
2023/06/28 10:56:15;;;;;;;0.40;0.40;;;31.10;33.10;;;;;;5091251;28;20045;-86
2023/06/28 10:59:05;;;;;;;0.57;0.52;;;31.90;31.30;;;;;;5108579;28;20089;-85
2023/06/28 11:01:35;;;;;;;1.17;0.77;;;31.00;32.70;;;;;;5077224;28;20067;-85
2023/06/28 11:04:39;;;;;;;0.35;0.32;;;30.60;32.20;;;;;;5087906;28;21104;-80
2023/06/28 11:07:26;;;;;;;0.30;0.30;;;30.10;31.90;;;;;;5087231;28;20130;-84
2023/06/28 11:10:16;;;;;;;0.30;0.30;;;31.30;32.30;;;;;;5070780;28;20474;-84
2023/06/28 11:13:24;;;;;;;0.32;0.32;;;33.60;30.00;;;;;;5071136;28;20032;-84
2023/06/28 11:15:49;;;;;;;;;;;35.30;28.20;;;;;;5087000;28;20040;-84
2023/06/28 11:18:18;;;;;;;0.93;0.63;;;37.00;26.80;;;;;;5070573;28;19935;-83
2023/06/28 11:21:05;;;;;;;0.85;0.63;;;36.70;25.70;;;;;;5069194;28;20032;-82
2023/06/28 11:24:10;;;;;;;0.93;0.68;;;35.00;27.70;;;;;;5086637;28;20035;-82
2023/06/28 11:26:38;;;;;;;0.40;0.40;;;33.80;28.80;;;;;;5069108;28;20059;-83
2023/06/28 11:29:23;;;;;;;0.30;0.30;;;33.00;29.80;;;;;;5085741;28;20060;-83
2023/06/28 11:32:08;;;;;;;0.80;0.73;;;32.40;30.00;;;;;;5085864;28;20035;-80
2023/06/28 11:34:34;;;;;;;0.30;0.30;;;33.40;28.70;;;;;;5087959;28;20385;-82
2023/06/28 11:37:02;;;;;;;0.50;0.50;;;33.20;28.90;;;;;;5085650;28;20036;-81
2023/06/28 11:39:28;;;;;;;1.05;0.98;;;33.80;28.00;;;;;;5068880;28;20123;-82
2023/06/28 11:41:54;;;;;;;1.23;0.50;;;35.60;25.90;;;;;;5086432;28;20028;-80
2023/06/28 11:44:20;;;;;;;0.65;0.60;;;36.60;25.30;;;;;;5087014;28;20043;-80
2023/06/28 11:46:46;;;;;;;0.52;0.45;;;37.20;24.20;;;;;;5085343;28;20118;-80
2023/06/28 11:49:15;;;;;;;0.40;0.40;;;36.00;25.10;;;;;;5086156;28;20456;-81
2023/06/28 11:51:41;;;;;;;0.30;0.30;;;35.50;25.80;;;;;;5085196;28;20024;-82
2023/06/28 11:54:08;;;;;;;0.55;0.50;;;34.60;26.30;;;;;;5085527;28;20036;-81
2023/06/28 11:56:53;;;;;;;0.30;0.30;;;34.30;26.20;;;;;;5068169;28;20484;-82
2023/06/28 11:59:21;;;;;;;0.52;0.45;;;34.20;27.30;;;;;;5085786;28;20036;-80
2023/06/28 12:02:18;;;;;;;4.05;2.45;;;34.10;27.30;;;;;;5085298;28;20525;-81
2023/06/28 12:05:00;;;;;;;0.40;0.40;;;33.50;27.50;;;;;;5086795;28;20048;-81
2023/06/28 12:07:26;;;;;;;0.40;0.40;;;32.80;28.10;;;;;;5086480;28;20059;-82
2023/06/28 12:10:11;;;;;;;0.45;0.40;;;32.40;28.10;;;;;;5086890;28;20056;-82
2023/06/28 12:12:39;;;;;;;0.40;0.40;;;31.70;28.40;;;;;;5069292;28;20534;-83
2023/06/28 12:15:08;;;;;;;0.30;0.30;;;31.40;29.40;;;;;;5087483;28;20052;-83
2023/06/28 12:17:53;;;;;;;0.25;0.25;;;31.80;28.80;;;;;;5085798;28;20036;-82
2023/06/28 12:20:22;;;;;;;0.50;0.40;;;33.70;27.90;;;;;;5068559;28;20044;-82
2023/06/28 12:22:49;;;;;;;1.02;0.65;;;34.80;26.50;;;;;;5086095;28;20059;-83
2023/06/28 12:25:26;;;;;;;1.40;0.80;;;34.30;25.70;;;;;;5085687;28;20082;-82
2023/06/28 12:28:30;;;;;;;0.40;0.40;;;34.40;25.80;;;;;;5069344;28;20062;-83
2023/06/28 12:30:57;;;;;;;1.05;0.70;;;35.90;24.10;;;;;;5084759;28;20070;-80
2023/06/28 12:33:23;;;;;;;0.75;0.57;;;35.80;23.50;;;;;;5085068;28;20036;-81
2023/06/28 12:35:49;;;;;;;0.30;0.30;;;36.40;23.20;;;;;;5086084;28;20032;-81
2023/06/28 12:38:18;;;;;;;1.00;0.82;;;37.60;21.90;;;;;;5085752;28;20587;-83
2023/06/28 12:40:45;;;;;;;0.35;0.35;;;38.60;21.00;;;;;;5084821;28;20032;-80
2023/06/28 12:43:30;;;;;;;1.35;0.57;;;39.40;20.60;;;;;;5089575;28;20062;-83
2023/06/28 12:46:00;;;;;;;0.65;0.52;;;39.50;20.60;;;;;;5072444;28;20032;-81
2023/06/28 12:48:26;;;;;;;0.70;0.70;;;39.80;21.00;;;;;;5089086;28;20044;-81
2023/06/28 12:50:53;;;;;;;0.63;0.60;;;40.80;20.00;;;;;;5088699;28;20272;-81
2023/06/28 12:53:20;;;;;;;2.13;0.80;;;41.40;19.10;;;;;;5071883;28;20427;-81
2023/06/28 12:55:47;;;;;;;0.95;0.50;;;41.50;17.80;;;;;;5072197;28;20124;-81
2023/06/28 12:58:13;;;;;;;0.82;0.60;;;41.40;18.80;;;;;;5089874;28;20127;-82
2023/06/28 13:00:42;;;;;;;0.40;0.40;;;41.40;19.30;;;;;;5075308;28;20024;-80
2023/06/28 13:03:10;;;;;;;1.33;0.95;;;40.60;18.90;;;;;;5089692;28;20020;-83
2023/06/28 13:05:37;;;;;;;0.63;0.63;;;39.50;20.60;;;;;;5089864;28;20391;-83